Time;durP1;ratioP1;P1;durP2;ratioP2;P2;SDS_P1;SDS_P2;PMS_P1;PMS_P2;Temp;Humidity;BMP_temperature;BMP_pressure;BME280_temperature;BME280_humidity;BME280_pressure;Samples;Min_cycle;Max_cycle;Signal;HPM_P1;HPM_P2
2023/07/31 00:02:23;;;;;;;46.70;10.02;;;17.50;99.90;;;;;;4992193;28;20426;-84
2023/07/31 00:04:48;;;;;;;31.90;8.65;;;17.50;99.90;;;;;;4992459;28;20061;-85
2023/07/31 00:07:14;;;;;;;34.13;8.20;;;17.50;99.90;;;;;;4992791;28;20042;-85
2023/07/31 00:09:40;;;;;;;35.22;8.80;;;17.60;99.90;;;;;;4991960;28;20023;-85
2023/07/31 00:12:06;;;;;;;28.70;8.10;;;17.60;99.90;;;;;;4992658;28;20509;-85
2023/07/31 00:14:31;;;;;;;33.10;8.43;;;17.60;99.90;;;;;;4992445;28;20378;-85
2023/07/31 00:16:57;;;;;;;32.35;8.82;;;17.60;99.90;;;;;;4992155;28;20026;-86
2023/07/31 00:19:23;;;;;;;22.77;7.97;;;17.60;99.90;;;;;;4998012;28;20031;-86
2023/07/31 00:21:48;;;;;;;28.48;7.97;;;17.70;99.90;;;;;;4992898;28;20022;-85
2023/07/31 00:24:14;;;;;;;36.90;7.97;;;17.60;99.90;;;;;;4991203;28;20181;-85
2023/07/31 00:26:39;;;;;;;36.08;8.15;;;17.60;99.90;;;;;;4991384;28;20026;-85
2023/07/31 00:29:05;;;;;;;28.02;8.23;;;17.50;99.90;;;;;;4992598;28;20061;-85
2023/07/31 00:31:31;;;;;;;31.98;8.27;;;18.20;99.90;;;;;;4995373;28;20046;-85
2023/07/31 00:33:56;;;;;;;38.40;9.07;;;17.50;99.90;;;;;;4995961;28;20030;-86
2023/07/31 00:36:22;;;;;;;32.50;8.65;;;17.50;99.90;;;;;;4996448;28;20023;-85
2023/07/31 00:38:47;;;;;;;37.70;9.57;;;17.50;99.90;;;;;;4995353;28;20621;-86
2023/07/31 00:41:13;;;;;;;36.58;10.77;;;17.50;99.90;;;;;;4996039;28;20042;-85
2023/07/31 00:43:39;;;;;;;31.20;8.88;;;17.50;99.90;;;;;;4995236;28;20026;-85
2023/07/31 00:46:04;;;;;;;39.80;10.63;;;17.50;99.90;;;;;;4995327;28;20467;-85
2023/07/31 00:48:31;;;;;;;28.65;8.93;;;18.20;99.90;;;;;;4995404;28;20108;-85
2023/07/31 00:50:56;;;;;;;35.85;9.30;;;17.50;99.90;;;;;;4995304;28;20030;-84
2023/07/31 00:53:24;;;;;;;34.70;8.68;;;17.50;99.90;;;;;;4995419;28;20045;-84
2023/07/31 00:55:50;;;;;;;35.85;12.20;;;17.50;99.90;;;;;;4995550;28;20037;-86
2023/07/31 00:58:16;;;;;;;38.83;9.57;;;17.50;99.90;;;;;;5000871;28;20049;-84
2023/07/31 01:00:41;;;;;;;37.80;9.15;;;17.50;99.90;;;;;;5014798;28;20470;-85
2023/07/31 01:03:07;;;;;;;37.30;9.18;;;17.50;99.90;;;;;;5015014;28;20041;-85
2023/07/31 01:05:57;;;;;;;39.97;10.65;;;17.50;99.90;;;;;;5014331;28;20025;-84
2023/07/31 01:08:32;;;;;;;41.47;10.13;;;17.50;99.90;;;;;;5015105;28;20100;-84
2023/07/31 01:11:27;;;;;;;39.10;9.70;;;17.50;99.90;;;;;;5014520;28;20490;-85
2023/07/31 01:13:54;;;;;;;32.90;9.52;;;17.40;99.90;;;;;;5014341;28;20044;-84
2023/07/31 01:16:20;;;;;;;29.95;9.20;;;17.40;99.90;;;;;;5014995;28;20080;-84
2023/07/31 01:18:45;;;;;;;20.23;6.90;;;17.40;99.90;;;;;;5015246;28;20466;-85
2023/07/31 01:21:37;;;;;;;12.20;5.72;;;17.30;99.90;;;;;;5021523;28;20029;-84
2023/07/31 01:24:20;;;;;;;13.52;4.60;;;17.20;99.90;;;;;;4975181;28;20034;-84
2023/07/31 01:26:51;;;;;;;11.57;4.95;;;17.10;99.90;;;;;;5015031;28;20030;-84
2023/07/31 01:29:25;;;;;;;11.15;5.00;;;17.00;99.90;;;;;;5015085;28;20448;-85
2023/07/31 01:31:54;;;;;;;12.23;3.88;;;16.90;99.90;;;;;;5014525;28;20036;-84
2023/07/31 01:34:21;;;;;;;11.20;5.22;;;16.90;99.90;;;;;;5014149;28;20022;-85
2023/07/31 01:36:47;;;;;;;12.80;5.18;;;16.90;99.90;;;;;;5014327;28;20030;-85
2023/07/31 01:39:15;;;;;;;11.80;5.30;;;16.90;99.90;;;;;;5014483;28;20025;-85
2023/07/31 01:41:41;;;;;;;20.65;5.32;;;16.90;99.90;;;;;;5015096;28;20034;-84
2023/07/31 01:44:06;;;;;;;19.45;6.72;;;17.00;99.90;;;;;;5018155;28;20026;-84
2023/07/31 01:46:32;;;;;;;22.23;6.47;;;17.00;99.90;;;;;;5014150;28;20429;-84
2023/07/31 01:48:57;;;;;;;28.77;7.93;;;17.00;99.90;;;;;;5013759;28;20025;-84
2023/07/31 01:51:23;;;;;;;28.05;8.10;;;17.00;99.90;;;;;;5014152;28;20440;-85
2023/07/31 01:53:49;;;;;;;30.00;7.88;;;17.10;99.90;;;;;;5013941;28;20025;-85
2023/07/31 01:56:14;;;;;;;30.50;7.90;;;17.10;99.90;;;;;;5013810;28;20029;-85
2023/07/31 01:58:40;;;;;;;26.98;7.43;;;17.10;99.90;;;;;;5013759;28;20513;-85
2023/07/31 02:01:06;;;;;;;33.83;8.93;;;17.20;99.90;;;;;;5013980;28;20495;-85
2023/07/31 02:03:31;;;;;;;22.75;7.22;;;17.30;99.90;;;;;;5013539;28;20033;-85
2023/07/31 02:05:57;;;;;;;25.80;8.88;;;17.30;99.90;;;;;;5013899;28;20109;-85
2023/07/31 02:08:22;;;;;;;29.83;8.98;;;17.30;99.90;;;;;;5013608;28;20049;-85
2023/07/31 02:10:48;;;;;;;28.25;7.90;;;17.30;99.90;;;;;;5013647;28;20037;-84
2023/07/31 02:13:13;;;;;;;35.50;9.20;;;17.30;99.90;;;;;;5013634;28;20474;-84
2023/07/31 02:15:39;;;;;;;29.30;9.07;;;17.30;99.90;;;;;;5013371;28;20100;-85
2023/07/31 02:18:04;;;;;;;25.55;8.20;;;17.40;99.90;;;;;;5014078;28;20106;-85
2023/07/31 02:20:34;;;;;;;29.00;8.02;;;17.40;99.90;;;;;;5013335;28;20022;-85
2023/07/31 02:22:59;;;;;;;34.25;9.07;;;17.40;99.90;;;;;;4994959;28;20398;-85
2023/07/31 02:25:25;;;;;;;28.77;9.30;;;17.80;99.90;;;;;;4994104;28;20034;-85
2023/07/31 02:27:50;;;;;;;28.65;8.85;;;17.40;99.90;;;;;;4993650;28;20030;-85
2023/07/31 02:30:16;;;;;;;35.42;8.90;;;17.40;99.90;;;;;;4993508;28;20374;-84
2023/07/31 02:32:41;;;;;;;29.35;8.63;;;17.40;99.90;;;;;;4993620;28;20038;-84
2023/07/31 02:35:07;;;;;;;34.03;10.90;;;17.30;99.90;;;;;;4993762;28;20022;-85
2023/07/31 02:37:34;;;;;;;30.35;9.32;;;17.40;99.90;;;;;;4993453;28;20129;-84
2023/07/31 02:39:59;;;;;;;24.27;8.18;;;17.40;99.90;;;;;;4993876;28;20079;-84
2023/07/31 02:42:25;;;;;;;23.70;8.40;;;17.90;99.90;;;;;;4993607;28;20034;-85
2023/07/31 02:44:55;;;;;;;26.58;9.05;;;17.40;99.90;;;;;;4993033;28;20058;-85
2023/07/31 02:47:21;;;;;;;25.23;8.82;;;17.40;99.90;;;;;;4993501;28;20038;-85
2023/07/31 02:49:47;;;;;;;26.23;9.23;;;17.40;99.90;;;;;;4993349;28;20023;-85
2023/07/31 02:52:12;;;;;;;23.30;8.05;;;17.40;99.90;;;;;;4992307;28;20049;-85
2023/07/31 02:54:38;;;;;;;27.65;7.75;;;17.70;99.90;;;;;;4992234;28;20084;-85
2023/07/31 02:57:04;;;;;;;29.70;8.20;;;17.40;99.90;;;;;;4994150;28;20383;-84
2023/07/31 02:59:30;;;;;;;21.50;7.63;;;17.40;99.90;;;;;;5007754;28;20081;-85
2023/07/31 03:01:55;;;;;;;30.15;8.77;;;17.30;99.90;;;;;;5012981;28;20421;-85
2023/07/31 03:04:21;;;;;;;33.90;8.65;;;17.40;99.90;;;;;;5013119;28;20026;-85
2023/07/31 03:06:46;;;;;;;23.35;7.45;;;17.40;99.90;;;;;;5012884;28;20029;-85
2023/07/31 03:09:12;;;;;;;18.95;7.35;;;17.40;99.90;;;;;;5012750;28;20104;-84
2023/07/31 03:11:38;;;;;;;26.48;7.68;;;17.40;99.90;;;;;;5012081;28;20382;-85
2023/07/31 03:14:03;;;;;;;29.10;8.45;;;17.40;99.90;;;;;;5012090;28;20025;-84
2023/07/31 03:16:29;;;;;;;22.63;8.07;;;17.40;99.90;;;;;;5012172;28;20565;-84
2023/07/31 03:18:54;;;;;;;32.25;8.07;;;17.40;99.90;;;;;;5012643;28;20030;-85
2023/07/31 03:21:20;;;;;;;30.30;7.90;;;17.40;99.90;;;;;;5012339;28;20029;-85
2023/07/31 03:23:46;;;;;;;28.08;9.63;;;17.70;99.90;;;;;;5012441;28;20044;-86
2023/07/31 03:26:11;;;;;;;23.23;8.85;;;17.40;99.90;;;;;;5011897;28;20473;-85
2023/07/31 03:28:37;;;;;;;26.92;8.02;;;17.40;99.90;;;;;;5012677;28;20025;-85
2023/07/31 03:31:02;;;;;;;28.23;8.98;;;17.50;99.90;;;;;;5012807;28;20510;-85
2023/07/31 03:33:28;;;;;;;23.58;7.68;;;17.40;99.90;;;;;;5012071;28;20026;-85
2023/07/31 03:35:54;;;;;;;24.35;8.65;;;17.40;99.90;;;;;;5012632;28;20477;-85
2023/07/31 03:38:19;;;;;;;22.52;7.60;;;17.30;99.90;;;;;;5012446;28;20041;-85
2023/07/31 03:40:45;;;;;;;24.20;8.50;;;17.30;99.90;;;;;;5012025;28;20026;-85
2023/07/31 03:43:11;;;;;;;28.17;7.70;;;17.40;99.90;;;;;;5012587;28;20030;-85
2023/07/31 03:45:37;;;;;;;30.10;9.63;;;17.30;99.90;;;;;;5012356;28;20088;-85
2023/07/31 03:48:04;;;;;;;24.20;7.85;;;17.20;99.90;;;;;;5012066;28;20034;-85
2023/07/31 03:50:29;;;;;;;24.63;7.93;;;17.20;99.90;;;;;;5011758;28;20026;-85
2023/07/31 03:52:55;;;;;;;21.38;8.82;;;17.20;99.90;;;;;;5012460;28;20037;-85
2023/07/31 03:55:21;;;;;;;24.02;8.15;;;17.20;99.90;;;;;;5011929;28;20461;-85
2023/07/31 03:57:47;;;;;;;21.85;7.15;;;17.20;99.90;;;;;;5012016;28;20033;-85
2023/07/31 04:00:13;;;;;;;28.52;9.60;;;17.20;99.90;;;;;;5012290;28;20084;-85
2023/07/31 04:02:39;;;;;;;16.35;7.15;;;17.10;99.90;;;;;;5011711;28;20036;-85
2023/07/31 04:05:04;;;;;;;23.15;8.45;;;17.00;99.90;;;;;;5015173;28;20018;-84
2023/07/31 04:07:30;;;;;;;22.20;7.18;;;17.00;99.90;;;;;;5015943;28;20048;-84
2023/07/31 04:09:57;;;;;;;18.05;7.32;;;17.00;99.90;;;;;;5016117;28;20054;-85
2023/07/31 04:12:23;;;;;;;26.88;7.85;;;16.90;99.90;;;;;;5016319;28;20464;-85
2023/07/31 04:14:50;;;;;;;26.88;9.20;;;16.90;99.90;;;;;;5015384;28;20022;-84
2023/07/31 04:17:17;;;;;;;26.20;7.47;;;16.90;99.90;;;;;;5016257;28;20397;-85
2023/07/31 04:19:42;;;;;;;26.80;9.43;;;17.00;99.90;;;;;;5015386;28;20363;-85
2023/07/31 04:22:08;;;;;;;18.77;7.82;;;16.90;99.90;;;;;;5015519;28;20037;-85
2023/07/31 04:24:33;;;;;;;19.45;8.13;;;16.80;99.90;;;;;;5015793;28;20481;-84
2023/07/31 04:26:59;;;;;;;24.52;8.02;;;16.80;99.90;;;;;;5020560;28;20053;-84
2023/07/31 04:29:24;;;;;;;16.20;7.05;;;16.70;99.90;;;;;;5020224;28;20022;-84
2023/07/31 04:31:50;;;;;;;22.17;8.68;;;16.70;99.90;;;;;;5012102;28;20045;-85
2023/07/31 04:34:16;;;;;;;16.42;6.53;;;16.70;99.90;;;;;;5015526;28;20025;-85
2023/07/31 04:36:41;;;;;;;12.75;6.63;;;16.70;99.90;;;;;;5015364;28;20026;-85
2023/07/31 04:39:07;;;;;;;16.67;6.68;;;16.70;99.90;;;;;;5015892;28;20014;-84
2023/07/31 04:41:32;;;;;;;14.15;6.88;;;16.70;99.90;;;;;;5015353;28;20486;-84
2023/07/31 04:43:58;;;;;;;16.38;6.88;;;16.60;99.90;;;;;;5014845;28;20025;-85
2023/07/31 04:46:23;;;;;;;19.00;8.02;;;16.90;99.90;;;;;;5015481;28;20026;-85
2023/07/31 04:48:49;;;;;;;16.65;6.72;;;16.60;99.90;;;;;;5015229;28;20029;-85
2023/07/31 04:51:15;;;;;;;16.08;5.95;;;16.80;99.90;;;;;;5014887;28;20033;-84
2023/07/31 04:53:40;;;;;;;11.57;6.40;;;16.60;99.90;;;;;;5015192;28;20022;-84
2023/07/31 04:56:06;;;;;;;14.18;6.43;;;16.60;99.90;;;;;;5015043;28;20041;-84
2023/07/31 04:58:31;;;;;;;15.18;6.30;;;16.60;99.90;;;;;;5014161;28;20442;-84
2023/07/31 05:00:57;;;;;;;15.23;6.13;;;16.60;99.90;;;;;;5015228;28;20034;-89
2023/07/31 05:03:22;;;;;;;14.45;6.60;;;16.60;99.90;;;;;;5015414;28;20026;-85
2023/07/31 05:05:49;;;;;;;16.35;6.40;;;16.50;99.90;;;;;;5013788;28;20026;-85
2023/07/31 05:08:17;;;;;;;10.82;5.78;;;16.50;99.90;;;;;;5013584;28;20033;-83
2023/07/31 05:10:43;;;;;;;12.35;5.95;;;16.50;99.90;;;;;;5014571;28;20030;-84
2023/07/31 05:13:08;;;;;;;10.60;5.95;;;16.50;99.90;;;;;;5013835;28;20377;-84
2023/07/31 05:15:34;;;;;;;13.13;6.18;;;16.50;99.90;;;;;;5010404;28;20049;-84
2023/07/31 05:17:59;;;;;;;21.48;6.80;;;16.50;99.90;;;;;;5013017;28;20096;-84
2023/07/31 05:20:25;;;;;;;20.38;5.57;;;16.50;99.90;;;;;;5013084;28;20117;-84
2023/07/31 05:22:51;;;;;;;11.50;5.80;;;16.50;99.90;;;;;;5013816;28;20037;-84
2023/07/31 05:25:17;;;;;;;12.73;6.18;;;16.50;99.90;;;;;;5013978;28;20083;-84
2023/07/31 05:27:42;;;;;;;13.63;6.40;;;16.50;99.90;;;;;;5014247;28;20355;-84
2023/07/31 05:30:08;;;;;;;15.60;6.65;;;16.50;99.90;;;;;;5014275;28;20049;-84
2023/07/31 05:32:34;;;;;;;13.85;6.30;;;16.50;99.90;;;;;;5013562;28;20038;-84
2023/07/31 05:34:59;;;;;;;10.05;5.55;;;16.50;99.90;;;;;;5012188;28;20079;-85
2023/07/31 05:37:25;;;;;;;15.40;6.03;;;16.50;99.90;;;;;;5013883;28;20061;-84
2023/07/31 05:39:51;;;;;;;8.35;5.00;;;16.50;99.90;;;;;;5013377;28;20025;-85
2023/07/31 05:42:17;;;;;;;12.55;5.88;;;16.50;99.90;;;;;;5014282;28;20025;-85
2023/07/31 05:44:43;;;;;;;9.23;4.55;;;16.50;99.90;;;;;;5011199;28;20389;-84
2023/07/31 05:47:09;;;;;;;8.95;4.57;;;16.70;99.90;;;;;;5013809;28;20014;-83
2023/07/31 05:49:35;;;;;;;10.02;4.85;;;16.50;99.90;;;;;;5013533;28;20041;-84
2023/07/31 05:52:00;;;;;;;8.60;4.28;;;16.50;99.90;;;;;;5022146;28;20129;-84
2023/07/31 05:54:26;;;;;;;9.35;4.38;;;16.90;99.90;;;;;;5019198;28;20050;-85
2023/07/31 05:56:51;;;;;;;11.07;4.80;;;16.50;99.90;;;;;;5013161;28;20045;-85
2023/07/31 05:59:17;;;;;;;5.25;4.00;;;16.50;99.90;;;;;;5012401;28;20489;-85
2023/07/31 06:01:43;;;;;;;8.00;4.50;;;16.50;99.90;;;;;;5009597;28;20117;-85
2023/07/31 06:04:08;;;;;;;7.53;3.75;;;16.50;99.90;;;;;;5012960;28;20084;-86
2023/07/31 06:06:34;;;;;;;9.43;4.63;;;16.60;99.90;;;;;;5012797;28;20025;-85
2023/07/31 06:08:59;;;;;;;7.97;5.22;;;16.60;99.90;;;;;;5012680;28;20025;-85
2023/07/31 06:11:25;;;;;;;7.07;4.15;;;16.60;99.90;;;;;;5013181;28;20571;-85
2023/07/31 06:13:51;;;;;;;13.77;4.70;;;16.60;99.90;;;;;;5010459;28;20036;-85
2023/07/31 06:16:16;;;;;;;10.00;5.30;;;16.60;99.90;;;;;;5012942;28;20109;-85
2023/07/31 06:18:42;;;;;;;11.15;5.40;;;16.60;99.90;;;;;;5012815;28;20026;-85
2023/07/31 06:21:09;;;;;;;8.55;5.05;;;16.60;99.90;;;;;;5012866;28;20032;-84
2023/07/31 06:23:35;;;;;;;8.40;5.22;;;16.60;99.90;;;;;;5012839;28;20096;-85
2023/07/31 06:26:00;;;;;;;8.38;4.60;;;16.60;99.90;;;;;;5013733;28;20417;-85
2023/07/31 06:28:30;;;;;;;11.48;5.43;;;16.90;99.90;;;;;;5012050;28;20481;-85
2023/07/31 06:30:56;;;;;;;6.47;4.40;;;16.70;99.90;;;;;;5012813;28;20065;-85
2023/07/31 06:33:21;;;;;;;6.88;4.50;;;16.60;99.90;;;;;;5013373;28;20083;-85
2023/07/31 06:35:47;;;;;;;7.72;4.57;;;16.70;99.90;;;;;;5012892;28;20017;-89
2023/07/31 06:38:12;;;;;;;7.10;4.15;;;16.70;99.90;;;;;;5012762;28;20386;-88
2023/07/31 06:40:38;;;;;;;6.80;4.25;;;16.70;99.90;;;;;;5011433;28;20488;-87
2023/07/31 06:43:07;;;;;;;10.75;4.45;;;16.70;99.90;;;;;;5013550;28;20494;-88
2023/07/31 06:45:37;;;;;;;6.85;3.55;;;16.70;99.90;;;;;;5011544;28;20033;-87
2023/07/31 06:48:03;;;;;;;9.45;4.03;;;16.80;99.90;;;;;;5013883;28;20045;-88
2023/07/31 06:50:31;;;;;;;9.10;4.38;;;16.80;99.90;;;;;;5014551;28;20113;-92
2023/07/31 06:52:58;;;;;;;6.20;3.63;;;16.80;99.90;;;;;;5015910;28;20034;-91
2023/07/31 06:55:26;;;;;;;9.13;4.15;;;16.80;99.90;;;;;;5024620;28;20018;-88
2023/07/31 06:57:53;;;;;;;7.88;4.15;;;17.40;99.90;;;;;;5013284;28;20108;-88
2023/07/31 07:00:20;;;;;;;7.00;3.83;;;16.80;99.90;;;;;;5014238;28;20026;-90
2023/07/31 07:02:48;;;;;;;7.90;4.03;;;16.90;99.90;;;;;;5013869;28;20091;-88
2023/07/31 07:05:14;;;;;;;7.78;4.00;;;16.80;99.90;;;;;;5013199;28;20083;-88
2023/07/31 07:07:41;;;;;;;11.07;4.13;;;16.80;99.90;;;;;;5014150;28;20033;-88
2023/07/31 07:10:07;;;;;;;7.07;3.75;;;16.90;99.90;;;;;;5013340;28;20030;-88
2023/07/31 07:12:33;;;;;;;7.00;3.30;;;16.90;99.90;;;;;;5013227;28;20124;-87
2023/07/31 07:15:02;;;;;;;6.40;3.47;;;16.90;99.90;;;;;;5019891;28;20018;-86
2023/07/31 07:17:32;;;;;;;3.65;3.20;;;16.80;99.90;;;;;;5020691;28;20386;-82
2023/07/31 07:19:58;;;;;;;2.78;2.55;;;16.90;99.90;;;;;;5012039;28;20496;-83
2023/07/31 07:22:25;;;;;;;4.97;2.78;;;16.90;99.90;;;;;;5013341;28;20120;-87
2023/07/31 07:24:51;;;;;;;4.65;3.05;;;17.00;99.90;;;;;;5013659;28;20069;-91
2023/07/31 07:27:16;;;;;;;4.78;2.95;;;17.00;99.90;;;;;;5014416;28;20030;-93
2023/07/31 07:29:42;;;;;;;4.95;2.50;;;17.00;99.90;;;;;;5014364;28;20034;-90
2023/07/31 07:32:08;;;;;;;3.33;2.60;;;17.00;99.90;;;;;;5020059;28;20054;-85
2023/07/31 07:34:33;;;;;;;6.20;2.63;;;17.00;99.90;;;;;;5014723;28;20547;-85
2023/07/31 07:36:59;;;;;;;4.95;2.80;;;17.00;99.90;;;;;;5022858;28;20045;-95
2023/07/31 07:39:36;;;;;;;3.75;2.97;;;17.30;99.90;;;;;;5028070;28;20168;-88
2023/07/31 07:42:02;;;;;;;4.88;2.75;;;17.10;99.90;;;;;;5012478;28;20030;-92
2023/07/31 07:44:40;;;;;;;2.67;2.05;;;17.00;99.90;;;;;;5006237;28;20025;-88
2023/07/31 07:47:20;;;;;;;2.90;2.15;;;17.10;99.90;;;;;;5006731;28;20129;-89
2023/07/31 07:49:58;;;;;;;2.85;2.20;;;17.10;99.90;;;;;;5016049;28;20099;-88
2023/07/31 07:52:42;;;;;;;2.72;1.77;;;17.10;99.90;;;;;;5010139;28;20086;-87
2023/07/31 07:55:20;;;;;;;2.88;2.20;;;17.30;99.90;;;;;;5045820;23;20168;-87
2023/07/31 07:57:54;;;;;;;3.65;1.98;;;17.20;99.90;;;;;;5012889;28;20088;-87
2023/07/31 08:00:28;;;;;;;2.10;1.83;;;17.20;99.90;;;;;;5025637;28;20033;-88
2023/07/31 08:02:58;;;;;;;2.00;1.85;;;17.20;99.90;;;;;;5031691;28;20396;-88
2023/07/31 08:05:33;;;;;;;2.28;1.88;;;17.20;99.90;;;;;;5032066;28;20095;-87
2023/07/31 08:07:59;;;;;;;1.88;1.77;;;16.90;99.90;;;;;;5031481;28;20460;-87
2023/07/31 08:10:25;;;;;;;2.88;1.80;;;17.20;99.90;;;;;;5031842;28;20040;-87
2023/07/31 08:15:24;;;;;;;3.72;2.00;;;17.20;99.90;;;;;;4996951;28;20065;-87
2023/07/31 08:17:56;;;;;;;2.83;2.40;;;17.20;99.90;;;;;;4999008;28;20473;-87
2023/07/31 08:20:26;;;;;;;2.60;2.10;;;17.90;99.90;;;;;;5000087;28;20049;-88
2023/07/31 08:22:52;;;;;;;2.42;2.22;;;17.30;99.90;;;;;;5011293;28;20033;-87
2023/07/31 08:25:21;;;;;;;2.42;2.22;;;17.30;99.90;;;;;;5009897;23;20065;-87
2023/07/31 08:27:54;;;;;;;2.70;2.40;;;17.30;99.90;;;;;;5005318;23;20054;-87
2023/07/31 08:30:29;;;;;;;3.03;2.30;;;17.40;99.90;;;;;;5011146;28;20386;-87
2023/07/31 08:32:55;;;;;;;6.68;2.70;;;17.40;99.90;;;;;;4999041;28;20088;-86
2023/07/31 08:35:30;;;;;;;3.28;2.50;;;17.40;99.90;;;;;;5011006;28;20076;-86
2023/07/31 08:37:55;;;;;;;3.08;2.60;;;17.30;99.90;;;;;;5012723;28;20080;-86
2023/07/31 08:40:24;;;;;;;3.40;2.50;;;17.40;99.90;;;;;;5014984;28;20030;-87
2023/07/31 08:43:02;;;;;;;2.90;2.20;;;18.20;99.90;;;;;;5010703;28;20022;-87
2023/07/31 08:45:37;;;;;;;3.05;2.20;;;17.40;99.90;;;;;;5011490;28;20417;-88
2023/07/31 08:48:02;;;;;;;2.97;2.40;;;17.40;99.90;;;;;;5003320;28;20022;-88
2023/07/31 08:50:43;;;;;;;5.70;2.50;;;17.40;99.90;;;;;;5007349;28;20495;-88
2023/07/31 08:53:09;;;;;;;2.88;2.60;;;17.50;99.90;;;;;;5015037;28;20426;-87
2023/07/31 08:55:37;;;;;;;2.83;2.50;;;17.50;99.90;;;;;;5014886;28;20032;-84
2023/07/31 08:58:04;;;;;;;3.15;2.95;;;17.60;99.90;;;;;;5014708;28;20046;-87
2023/07/31 09:00:32;;;;;;;3.90;3.50;;;17.60;99.90;;;;;;5008642;28;20098;-86
2023/07/31 09:03:03;;;;;;;5.95;3.33;;;17.60;99.90;;;;;;5012496;28;20029;-88
2023/07/31 09:05:30;;;;;;;3.55;3.15;;;17.70;99.90;;;;;;5011585;28;20029;-87
2023/07/31 09:07:57;;;;;;;3.13;2.80;;;17.70;99.90;;;;;;5013013;28;20057;-87
2023/07/31 09:10:22;;;;;;;6.00;3.50;;;17.70;99.90;;;;;;5013555;28;20026;-86
2023/07/31 09:12:51;;;;;;;4.28;3.88;;;17.70;99.90;;;;;;5013367;28;20034;-86
2023/07/31 09:15:17;;;;;;;3.42;3.13;;;17.80;99.90;;;;;;5014011;28;20431;-86
2023/07/31 09:17:42;;;;;;;2.85;2.60;;;17.80;99.90;;;;;;5014951;28;20030;-87
2023/07/31 09:20:21;;;;;;;4.00;3.35;;;17.80;99.90;;;;;;5015219;28;20416;-87
2023/07/31 09:22:48;;;;;;;3.55;3.25;;;17.80;99.90;;;;;;5015616;28;20033;-87
2023/07/31 09:25:22;;;;;;;3.60;3.30;;;17.70;99.90;;;;;;5015068;28;20033;-86
2023/07/31 09:27:50;;;;;;;4.13;3.70;;;17.80;99.90;;;;;;5014774;28;20046;-87
2023/07/31 09:30:17;;;;;;;3.35;3.13;;;17.80;99.90;;;;;;5015329;28;20041;-87
2023/07/31 09:32:45;;;;;;;4.28;3.95;;;17.80;99.90;;;;;;5014703;28;20038;-87
2023/07/31 09:35:21;;;;;;;4.25;3.72;;;17.80;99.90;;;;;;5015694;28;20038;-87
2023/07/31 09:37:55;;;;;;;4.60;4.20;;;17.80;99.90;;;;;;5018151;28;20033;-85
2023/07/31 09:40:31;;;;;;;6.75;4.47;;;17.90;99.90;;;;;;4996996;28;20030;-85
2023/07/31 09:42:59;;;;;;;5.85;5.13;;;17.90;99.90;;;;;;5011169;28;20033;-88
2023/07/31 09:45:25;;;;;;;5.28;4.78;;;17.90;99.90;;;;;;4995267;28;20414;-84
2023/07/31 09:47:51;;;;;;;7.03;5.15;;;17.90;99.90;;;;;;5011206;28;20032;-83
2023/07/31 09:50:19;;;;;;;5.97;5.38;;;17.90;99.90;;;;;;5013775;28;20029;-81
2023/07/31 09:52:45;;;;;;;5.55;4.50;;;17.90;99.90;;;;;;5011875;28;20144;-85
2023/07/31 09:55:11;;;;;;;6.13;5.40;;;17.90;99.90;;;;;;5013253;28;20100;-85
2023/07/31 09:57:48;;;;;;;8.10;4.47;;;17.90;99.90;;;;;;5013292;28;20084;-86
2023/07/31 10:00:16;;;;;;;6.55;4.82;;;17.90;99.90;;;;;;5012756;28;20131;-85
2023/07/31 10:02:45;;;;;;;5.32;4.82;;;17.90;99.90;;;;;;5011054;28;20018;-85
2023/07/31 10:05:18;;;;;;;5.47;4.97;;;17.90;99.90;;;;;;5010874;28;20052;-86
2023/07/31 10:07:51;;;;;;;6.43;4.93;;;17.90;99.90;;;;;;5010124;28;20022;-86
2023/07/31 10:10:20;;;;;;;5.80;4.70;;;18.00;99.90;;;;;;5012053;28;20030;-85
2023/07/31 10:12:46;;;;;;;6.05;5.38;;;18.10;99.90;;;;;;5012703;28;20038;-85
2023/07/31 10:15:12;;;;;;;5.45;4.95;;;18.10;99.90;;;;;;5011955;28;20029;-86
2023/07/31 10:17:38;;;;;;;4.28;3.97;;;18.00;99.90;;;;;;5013331;28;20036;-86
2023/07/31 10:20:05;;;;;;;4.60;4.30;;;18.40;99.90;;;;;;5013757;28;20092;-86
2023/07/31 10:22:34;;;;;;;3.60;3.20;;;18.10;99.90;;;;;;5012730;28;20462;-86
2023/07/31 10:25:00;;;;;;;3.03;2.83;;;18.40;99.90;;;;;;5012600;28;20429;-86
2023/07/31 10:27:26;;;;;;;3.42;2.40;;;18.10;99.90;;;;;;4998178;28;20084;-84
2023/07/31 10:29:55;;;;;;;2.85;1.70;;;18.10;99.90;;;;;;4994350;28;20030;-86
2023/07/31 10:32:21;;;;;;;2.63;2.25;;;18.10;99.90;;;;;;5002787;28;20045;-86
2023/07/31 10:34:48;;;;;;;3.25;2.75;;;18.20;99.90;;;;;;4997288;28;20021;-88
2023/07/31 10:37:23;;;;;;;2.80;2.60;;;18.20;99.90;;;;;;5011575;28;20475;-89
2023/07/31 10:40:02;;;;;;;3.30;2.90;;;18.20;99.90;;;;;;5017080;28;20046;-89
2023/07/31 10:42:44;;;;;;;4.75;3.28;;;18.10;99.90;;;;;;5027083;28;20022;-86
2023/07/31 10:45:10;;;;;;;6.25;3.33;;;18.10;99.90;;;;;;5016654;28;20351;-86
2023/07/31 10:47:45;;;;;;;4.03;3.15;;;18.10;99.90;;;;;;5008540;28;20045;-85
2023/07/31 10:50:18;;;;;;;4.32;3.35;;;18.10;99.90;;;;;;5003736;28;20034;-88
2023/07/31 10:52:52;;;;;;;5.30;3.38;;;18.10;99.90;;;;;;5005250;28;20044;-86
2023/07/31 10:55:27;;;;;;;5.32;3.92;;;18.30;99.90;;;;;;4996474;28;20026;-86
2023/07/31 10:57:56;;;;;;;4.25;3.75;;;18.10;99.90;;;;;;5006154;28;20486;-86
2023/07/31 11:00:26;;;;;;;4.28;3.88;;;18.10;99.90;;;;;;5012499;28;20029;-86
2023/07/31 11:03:04;;;;;;;8.25;4.40;;;18.10;99.90;;;;;;5012649;28;20075;-86
2023/07/31 11:05:54;;;;;;;6.60;5.10;;;18.10;99.90;;;;;;5001868;28;20471;-85
2023/07/31 11:08:24;;;;;;;5.00;4.43;;;18.10;99.90;;;;;;5001926;28;20069;-85
2023/07/31 11:11:03;;;;;;;6.38;4.57;;;18.10;99.90;;;;;;5004537;28;20026;-84
2023/07/31 11:13:32;;;;;;;5.88;5.35;;;18.00;99.90;;;;;;5000331;28;20023;-84
2023/07/31 11:15:59;;;;;;;7.15;5.72;;;18.00;99.90;;;;;;5000687;28;20061;-84
2023/07/31 11:18:26;;;;;;;6.72;5.80;;;18.10;99.90;;;;;;5009921;28;20342;-84
2023/07/31 11:20:53;;;;;;;10.15;5.78;;;18.00;99.90;;;;;;5003921;28;20030;-84
2023/07/31 11:23:19;;;;;;;6.95;5.90;;;18.30;99.90;;;;;;5006654;28;20038;-83
2023/07/31 11:25:45;;;;;;;7.28;6.28;;;18.10;99.90;;;;;;5009553;28;20478;-83
2023/07/31 11:28:13;;;;;;;6.32;5.72;;;18.00;99.90;;;;;;5006065;28;20058;-83
2023/07/31 11:30:43;;;;;;;5.90;5.40;;;18.00;99.90;;;;;;5008303;28;20460;-84
2023/07/31 11:33:11;;;;;;;6.50;5.75;;;18.10;99.90;;;;;;5002226;28;20042;-84
2023/07/31 11:35:44;;;;;;;5.75;5.22;;;18.50;99.90;;;;;;5005467;28;20041;-82
2023/07/31 11:38:24;;;;;;;5.60;4.78;;;18.00;99.90;;;;;;5007502;28;20496;-86
2023/07/31 11:40:50;;;;;;;4.95;4.35;;;18.00;99.90;;;;;;4990680;28;20468;-86
2023/07/31 11:43:18;;;;;;;4.57;4.18;;;18.10;99.90;;;;;;4994851;28;20044;-87
2023/07/31 11:45:49;;;;;;;5.82;4.70;;;18.00;99.90;;;;;;5009943;28;20165;-85
2023/07/31 11:48:26;;;;;;;6.30;5.18;;;18.00;99.90;;;;;;5009550;28;20083;-83
2023/07/31 11:51:02;;;;;;;4.65;4.28;;;18.00;99.90;;;;;;5010197;28;20072;-87
2023/07/31 11:53:35;;;;;;;4.25;3.90;;;18.00;99.90;;;;;;5011992;28;20034;-85
2023/07/31 11:56:04;;;;;;;4.65;4.25;;;18.00;99.90;;;;;;5012256;28;20028;-85
2023/07/31 11:58:31;;;;;;;5.40;4.70;;;18.00;99.90;;;;;;5012533;28;20026;-84
2023/07/31 12:00:57;;;;;;;5.05;4.47;;;18.00;99.90;;;;;;5012163;28;20030;-85
2023/07/31 12:03:23;;;;;;;5.30;4.80;;;18.20;99.90;;;;;;5012172;28;20022;-84
2023/07/31 12:05:49;;;;;;;4.60;4.20;;;18.10;99.90;;;;;;5012124;28;20026;-84
2023/07/31 12:08:16;;;;;;;5.20;4.57;;;18.00;99.90;;;;;;4994384;28;20184;-85
2023/07/31 12:10:42;;;;;;;5.00;4.60;;;18.00;99.90;;;;;;4991097;28;20033;-87
2023/07/31 12:13:14;;;;;;;5.50;4.97;;;18.30;99.90;;;;;;4990193;28;20125;-83
2023/07/31 12:15:42;;;;;;;5.22;4.72;;;18.10;99.90;;;;;;4991079;28;20027;-84
2023/07/31 12:18:10;;;;;;;5.43;5.03;;;18.10;99.90;;;;;;4991357;28;20032;-84
2023/07/31 12:20:44;;;;;;;4.63;4.07;;;18.10;99.90;;;;;;4991290;28;20085;-84
2023/07/31 12:23:19;;;;;;;5.43;4.88;;;18.20;99.90;;;;;;4990581;28;20022;-84
2023/07/31 12:25:44;;;;;;;4.80;4.25;;;18.20;99.90;;;;;;4992950;28;20041;-84
2023/07/31 12:28:13;;;;;;;6.22;4.80;;;18.70;99.90;;;;;;4995698;28;20034;-85
2023/07/31 12:30:40;;;;;;;5.05;4.65;;;18.20;99.90;;;;;;4995610;28;20037;-85
2023/07/31 12:33:12;;;;;;;6.05;4.38;;;18.10;99.90;;;;;;4996380;28;20042;-85
2023/07/31 12:35:40;;;;;;;6.13;4.10;;;18.20;99.90;;;;;;4995558;28;20106;-85
2023/07/31 12:38:06;;;;;;;4.50;4.10;;;18.80;99.90;;;;;;4996097;28;20129;-86
2023/07/31 12:40:32;;;;;;;4.65;4.20;;;18.20;99.90;;;;;;4995890;28;20481;-86
2023/07/31 12:43:02;;;;;;;4.60;4.30;;;18.20;99.90;;;;;;4995790;28;20022;-85
2023/07/31 12:45:28;;;;;;;4.90;4.40;;;18.30;99.90;;;;;;4994130;28;20030;-86
2023/07/31 12:47:53;;;;;;;4.25;3.95;;;18.30;99.90;;;;;;4993047;28;20081;-85